sensor_id;sensor_type;location;lat;lon;timestamp;P1;durP1;ratioP1;P2;durP2;ratioP2
2972;SDS011;1496;51.404;7.232;2023-04-30T00:00:13;14.27;;;9.20;;
2972;SDS011;1496;51.404;7.232;2023-04-30T00:02:40;15.00;;;8.50;;
2972;SDS011;1496;51.404;7.232;2023-04-30T00:05:07;10.43;;;7.83;;
2972;SDS011;1496;51.404;7.232;2023-04-30T00:07:35;11.60;;;7.93;;
2972;SDS011;1496;51.404;7.232;2023-04-30T00:10:10;12.60;;;7.83;;
2972;SDS011;1496;51.404;7.232;2023-04-30T00:12:38;14.27;;;8.20;;
2972;SDS011;1496;51.404;7.232;2023-04-30T00:15:04;12.10;;;8.67;;
2972;SDS011;1496;51.404;7.232;2023-04-30T00:17:31;15.80;;;10.47;;
2972;SDS011;1496;51.404;7.232;2023-04-30T00:19:58;9.53;;;7.93;;
2972;SDS011;1496;51.404;7.232;2023-04-30T00:22:26;9.10;;;7.40;;
2972;SDS011;1496;51.404;7.232;2023-04-30T00:24:52;11.03;;;7.87;;
2972;SDS011;1496;51.404;7.232;2023-04-30T00:27:18;13.40;;;8.80;;
2972;SDS011;1496;51.404;7.232;2023-04-30T00:29:45;13.33;;;8.10;;
2972;SDS011;1496;51.404;7.232;2023-04-30T00:32:13;13.80;;;8.07;;
2972;SDS011;1496;51.404;7.232;2023-04-30T00:34:39;8.93;;;7.20;;
2972;SDS011;1496;51.404;7.232;2023-04-30T00:37:06;9.77;;;8.10;;
2972;SDS011;1496;51.404;7.232;2023-04-30T00:39:34;11.60;;;7.97;;
2972;SDS011;1496;51.404;7.232;2023-04-30T00:42:00;10.10;;;7.90;;
2972;SDS011;1496;51.404;7.232;2023-04-30T00:44:28;10.17;;;6.37;;
2972;SDS011;1496;51.404;7.232;2023-04-30T00:46:55;11.10;;;7.40;;
2972;SDS011;1496;51.404;7.232;2023-04-30T00:49:22;13.90;;;8.60;;
2972;SDS011;1496;51.404;7.232;2023-04-30T00:51:50;11.70;;;8.00;;
2972;SDS011;1496;51.404;7.232;2023-04-30T00:54:19;9.07;;;6.97;;
2972;SDS011;1496;51.404;7.232;2023-04-30T00:56:46;12.03;;;8.03;;
2972;SDS011;1496;51.404;7.232;2023-04-30T00:59:14;12.97;;;8.33;;
2972;SDS011;1496;51.404;7.232;2023-04-30T01:01:42;12.20;;;8.87;;
2972;SDS011;1496;51.404;7.232;2023-04-30T01:04:09;11.57;;;7.83;;
2972;SDS011;1496;51.404;7.232;2023-04-30T01:06:35;10.37;;;7.63;;
2972;SDS011;1496;51.404;7.232;2023-04-30T01:09:04;13.07;;;8.97;;
2972;SDS011;1496;51.404;7.232;2023-04-30T01:17:15;14.57;;;8.43;;
2972;SDS011;1496;51.404;7.232;2023-04-30T01:19:48;10.30;;;7.50;;
2972;SDS011;1496;51.404;7.232;2023-04-30T01:25:05;13.17;;;9.40;;
2972;SDS011;1496;51.404;7.232;2023-04-30T01:30:31;12.37;;;8.60;;
2972;SDS011;1496;51.404;7.232;2023-04-30T01:33:01;13.70;;;9.07;;
2972;SDS011;1496;51.404;7.232;2023-04-30T01:35:49;13.03;;;11.10;;
2972;SDS011;1496;51.404;7.232;2023-04-30T01:38:31;13.23;;;9.17;;
2972;SDS011;1496;51.404;7.232;2023-04-30T01:41:19;12.33;;;9.47;;
2972;SDS011;1496;51.404;7.232;2023-04-30T01:47:06;20.93;;;10.13;;
2972;SDS011;1496;51.404;7.232;2023-04-30T01:55:00;17.23;;;10.17;;
2972;SDS011;1496;51.404;7.232;2023-04-30T01:57:40;16.10;;;9.87;;
2972;SDS011;1496;51.404;7.232;2023-04-30T02:00:11;22.27;;;11.20;;
2972;SDS011;1496;51.404;7.232;2023-04-30T02:02:40;15.80;;;10.93;;
2972;SDS011;1496;51.404;7.232;2023-04-30T02:05:07;18.73;;;11.00;;
2972;SDS011;1496;51.404;7.232;2023-04-30T02:07:36;14.10;;;10.30;;
2972;SDS011;1496;51.404;7.232;2023-04-30T02:10:09;14.43;;;11.20;;
2972;SDS011;1496;51.404;7.232;2023-04-30T02:12:40;14.10;;;9.83;;
2972;SDS011;1496;51.404;7.232;2023-04-30T02:15:07;16.30;;;10.33;;
2972;SDS011;1496;51.404;7.232;2023-04-30T02:17:34;17.33;;;11.47;;
2972;SDS011;1496;51.404;7.232;2023-04-30T02:20:02;19.23;;;12.17;;
2972;SDS011;1496;51.404;7.232;2023-04-30T02:22:29;14.63;;;9.80;;
2972;SDS011;1496;51.404;7.232;2023-04-30T02:24:56;17.07;;;11.00;;
2972;SDS011;1496;51.404;7.232;2023-04-30T02:27:23;17.30;;;11.70;;
2972;SDS011;1496;51.404;7.232;2023-04-30T02:29:50;15.00;;;10.87;;
2972;SDS011;1496;51.404;7.232;2023-04-30T02:32:17;20.57;;;12.70;;
2972;SDS011;1496;51.404;7.232;2023-04-30T02:34:44;14.37;;;10.60;;
2972;SDS011;1496;51.404;7.232;2023-04-30T02:37:11;15.60;;;10.40;;
2972;SDS011;1496;51.404;7.232;2023-04-30T02:39:38;14.83;;;10.23;;
2972;SDS011;1496;51.404;7.232;2023-04-30T02:42:06;17.53;;;11.50;;
2972;SDS011;1496;51.404;7.232;2023-04-30T02:44:33;13.73;;;10.70;;
2972;SDS011;1496;51.404;7.232;2023-04-30T02:47:03;19.63;;;11.87;;
2972;SDS011;1496;51.404;7.232;2023-04-30T02:49:30;16.57;;;11.80;;
2972;SDS011;1496;51.404;7.232;2023-04-30T02:51:58;19.60;;;11.80;;
2972;SDS011;1496;51.404;7.232;2023-04-30T02:54:25;20.40;;;12.60;;
2972;SDS011;1496;51.404;7.232;2023-04-30T02:56:52;21.43;;;13.10;;
2972;SDS011;1496;51.404;7.232;2023-04-30T02:59:19;26.73;;;11.67;;
2972;SDS011;1496;51.404;7.232;2023-04-30T03:01:46;24.50;;;12.40;;
2972;SDS011;1496;51.404;7.232;2023-04-30T03:04:12;24.57;;;13.37;;
2972;SDS011;1496;51.404;7.232;2023-04-30T03:06:39;25.00;;;11.40;;
2972;SDS011;1496;51.404;7.232;2023-04-30T03:09:05;23.40;;;11.63;;
2972;SDS011;1496;51.404;7.232;2023-04-30T03:11:32;23.63;;;11.10;;
2972;SDS011;1496;51.404;7.232;2023-04-30T03:14:02;27.90;;;12.67;;
2972;SDS011;1496;51.404;7.232;2023-04-30T03:16:29;30.37;;;14.00;;
2972;SDS011;1496;51.404;7.232;2023-04-30T03:18:56;27.80;;;12.77;;
2972;SDS011;1496;51.404;7.232;2023-04-30T03:21:23;24.63;;;12.00;;
2972;SDS011;1496;51.404;7.232;2023-04-30T03:23:51;28.13;;;12.57;;
2972;SDS011;1496;51.404;7.232;2023-04-30T03:26:17;26.00;;;12.00;;
2972;SDS011;1496;51.404;7.232;2023-04-30T03:28:44;25.17;;;12.07;;
2972;SDS011;1496;51.404;7.232;2023-04-30T03:31:10;28.93;;;13.23;;
2972;SDS011;1496;51.404;7.232;2023-04-30T03:33:37;23.03;;;13.03;;
2972;SDS011;1496;51.404;7.232;2023-04-30T03:36:04;28.17;;;12.70;;
2972;SDS011;1496;51.404;7.232;2023-04-30T03:38:31;21.80;;;12.53;;
2972;SDS011;1496;51.404;7.232;2023-04-30T03:40:57;20.70;;;12.40;;
2972;SDS011;1496;51.404;7.232;2023-04-30T03:43:24;18.80;;;11.90;;
2972;SDS011;1496;51.404;7.232;2023-04-30T03:45:51;21.50;;;13.30;;
2972;SDS011;1496;51.404;7.232;2023-04-30T03:48:18;19.03;;;12.07;;
2972;SDS011;1496;51.404;7.232;2023-04-30T03:50:46;17.50;;;12.20;;
2972;SDS011;1496;51.404;7.232;2023-04-30T03:53:13;21.90;;;13.60;;
2972;SDS011;1496;51.404;7.232;2023-04-30T03:55:40;21.37;;;12.80;;
2972;SDS011;1496;51.404;7.232;2023-04-30T03:58:08;21.37;;;12.53;;
2972;SDS011;1496;51.404;7.232;2023-04-30T04:00:34;21.17;;;13.27;;
2972;SDS011;1496;51.404;7.232;2023-04-30T04:03:02;20.13;;;12.37;;
2972;SDS011;1496;51.404;7.232;2023-04-30T04:05:29;23.73;;;13.30;;
2972;SDS011;1496;51.404;7.232;2023-04-30T04:07:57;17.70;;;11.90;;
2972;SDS011;1496;51.404;7.232;2023-04-30T04:10:26;18.67;;;12.40;;
2972;SDS011;1496;51.404;7.232;2023-04-30T04:12:53;25.80;;;12.57;;
2972;SDS011;1496;51.404;7.232;2023-04-30T04:15:22;17.33;;;12.63;;
2972;SDS011;1496;51.404;7.232;2023-04-30T04:17:51;21.27;;;12.87;;
2972;SDS011;1496;51.404;7.232;2023-04-30T04:20:18;15.40;;;11.50;;
2972;SDS011;1496;51.404;7.232;2023-04-30T04:22:46;20.60;;;14.03;;
2972;SDS011;1496;51.404;7.232;2023-04-30T04:25:14;17.80;;;13.07;;
2972;SDS011;1496;51.404;7.232;2023-04-30T04:27:43;17.03;;;12.20;;
2972;SDS011;1496;51.404;7.232;2023-04-30T04:30:10;17.27;;;13.67;;
2972;SDS011;1496;51.404;7.232;2023-04-30T04:32:39;18.70;;;12.93;;
2972;SDS011;1496;51.404;7.232;2023-04-30T04:35:13;18.53;;;12.20;;
2972;SDS011;1496;51.404;7.232;2023-04-30T04:37:41;21.83;;;13.17;;
2972;SDS011;1496;51.404;7.232;2023-04-30T04:40:08;19.20;;;13.53;;
2972;SDS011;1496;51.404;7.232;2023-04-30T04:42:36;19.50;;;14.33;;
2972;SDS011;1496;51.404;7.232;2023-04-30T04:45:07;17.03;;;13.27;;
2972;SDS011;1496;51.404;7.232;2023-04-30T04:47:34;23.07;;;14.00;;
2972;SDS011;1496;51.404;7.232;2023-04-30T04:50:02;26.70;;;16.37;;
2972;SDS011;1496;51.404;7.232;2023-04-30T04:52:29;20.10;;;13.30;;
2972;SDS011;1496;51.404;7.232;2023-04-30T04:54:57;22.27;;;15.07;;
2972;SDS011;1496;51.404;7.232;2023-04-30T04:57:24;26.83;;;15.07;;
2972;SDS011;1496;51.404;7.232;2023-04-30T04:59:52;21.00;;;15.80;;
2972;SDS011;1496;51.404;7.232;2023-04-30T05:02:19;29.73;;;15.30;;
2972;SDS011;1496;51.404;7.232;2023-04-30T05:04:49;19.17;;;14.30;;
2972;SDS011;1496;51.404;7.232;2023-04-30T05:07:17;29.33;;;15.87;;
2972;SDS011;1496;51.404;7.232;2023-04-30T05:09:45;26.53;;;14.30;;
2972;SDS011;1496;51.404;7.232;2023-04-30T05:12:12;22.03;;;15.53;;
2972;SDS011;1496;51.404;7.232;2023-04-30T05:14:40;19.13;;;14.20;;
2972;SDS011;1496;51.404;7.232;2023-04-30T05:17:08;23.13;;;14.80;;
2972;SDS011;1496;51.404;7.232;2023-04-30T05:19:34;19.30;;;14.50;;
2972;SDS011;1496;51.404;7.232;2023-04-30T05:22:01;19.90;;;13.90;;
2972;SDS011;1496;51.404;7.232;2023-04-30T05:24:28;21.70;;;13.60;;
2972;SDS011;1496;51.404;7.232;2023-04-30T05:26:55;16.70;;;13.83;;
2972;SDS011;1496;51.404;7.232;2023-04-30T05:29:22;20.23;;;14.37;;
2972;SDS011;1496;51.404;7.232;2023-04-30T05:31:49;16.03;;;13.53;;
2972;SDS011;1496;51.404;7.232;2023-04-30T05:34:15;18.07;;;13.50;;
2972;SDS011;1496;51.404;7.232;2023-04-30T05:36:41;22.27;;;14.50;;
2972;SDS011;1496;51.404;7.232;2023-04-30T05:39:10;19.87;;;14.50;;
2972;SDS011;1496;51.404;7.232;2023-04-30T05:41:37;25.17;;;15.13;;
2972;SDS011;1496;51.404;7.232;2023-04-30T05:44:03;24.23;;;14.07;;
2972;SDS011;1496;51.404;7.232;2023-04-30T05:46:31;22.73;;;14.50;;
2972;SDS011;1496;51.404;7.232;2023-04-30T05:48:59;19.23;;;14.43;;
2972;SDS011;1496;51.404;7.232;2023-04-30T05:51:27;24.00;;;15.97;;
2972;SDS011;1496;51.404;7.232;2023-04-30T05:53:54;21.67;;;16.23;;
2972;SDS011;1496;51.404;7.232;2023-04-30T05:56:22;24.77;;;16.03;;
2972;SDS011;1496;51.404;7.232;2023-04-30T05:58:49;20.83;;;14.20;;
2972;SDS011;1496;51.404;7.232;2023-04-30T06:01:18;20.37;;;15.23;;
2972;SDS011;1496;51.404;7.232;2023-04-30T06:03:46;24.00;;;15.37;;
2972;SDS011;1496;51.404;7.232;2023-04-30T06:06:12;20.40;;;14.40;;
2972;SDS011;1496;51.404;7.232;2023-04-30T06:08:40;22.10;;;15.67;;
2972;SDS011;1496;51.404;7.232;2023-04-30T06:11:13;23.77;;;14.00;;
2972;SDS011;1496;51.404;7.232;2023-04-30T06:13:40;17.23;;;14.73;;
2972;SDS011;1496;51.404;7.232;2023-04-30T06:16:07;20.30;;;15.20;;
2972;SDS011;1496;51.404;7.232;2023-04-30T06:18:35;21.73;;;16.00;;
2972;SDS011;1496;51.404;7.232;2023-04-30T06:21:02;23.97;;;15.17;;
2972;SDS011;1496;51.404;7.232;2023-04-30T06:23:29;25.03;;;16.47;;
2972;SDS011;1496;51.404;7.232;2023-04-30T06:25:57;23.97;;;14.90;;
2972;SDS011;1496;51.404;7.232;2023-04-30T06:28:24;18.40;;;13.70;;
2972;SDS011;1496;51.404;7.232;2023-04-30T06:30:52;17.93;;;13.67;;
2972;SDS011;1496;51.404;7.232;2023-04-30T06:33:19;20.07;;;14.03;;
2972;SDS011;1496;51.404;7.232;2023-04-30T06:35:46;23.60;;;16.10;;
2972;SDS011;1496;51.404;7.232;2023-04-30T06:38:16;19.80;;;13.60;;
2972;SDS011;1496;51.404;7.232;2023-04-30T06:40:42;21.77;;;16.10;;
2972;SDS011;1496;51.404;7.232;2023-04-30T06:43:09;16.23;;;12.90;;
2972;SDS011;1496;51.404;7.232;2023-04-30T06:45:37;18.17;;;12.60;;
2972;SDS011;1496;51.404;7.232;2023-04-30T06:48:03;19.40;;;13.43;;
2972;SDS011;1496;51.404;7.232;2023-04-30T06:50:30;20.37;;;13.77;;
2972;SDS011;1496;51.404;7.232;2023-04-30T06:52:57;14.43;;;12.10;;
2972;SDS011;1496;51.404;7.232;2023-04-30T06:55:23;20.07;;;13.03;;
2972;SDS011;1496;51.404;7.232;2023-04-30T06:57:52;15.87;;;12.30;;
2972;SDS011;1496;51.404;7.232;2023-04-30T07:00:19;19.17;;;11.93;;
2972;SDS011;1496;51.404;7.232;2023-04-30T07:02:45;13.43;;;10.47;;
2972;SDS011;1496;51.404;7.232;2023-04-30T07:05:16;15.83;;;11.43;;
2972;SDS011;1496;51.404;7.232;2023-04-30T07:07:43;19.40;;;12.10;;
2972;SDS011;1496;51.404;7.232;2023-04-30T07:10:11;17.20;;;10.03;;
2972;SDS011;1496;51.404;7.232;2023-04-30T07:12:39;21.63;;;11.23;;
2972;SDS011;1496;51.404;7.232;2023-04-30T07:15:07;24.27;;;11.50;;
2972;SDS011;1496;51.404;7.232;2023-04-30T07:17:34;21.00;;;9.93;;
2972;SDS011;1496;51.404;7.232;2023-04-30T07:20:02;19.90;;;9.43;;
2972;SDS011;1496;51.404;7.232;2023-04-30T07:22:30;21.60;;;9.87;;
2972;SDS011;1496;51.404;7.232;2023-04-30T07:24:56;21.90;;;8.83;;
2972;SDS011;1496;51.404;7.232;2023-04-30T07:27:24;19.43;;;9.80;;
2972;SDS011;1496;51.404;7.232;2023-04-30T07:29:53;13.37;;;8.80;;
2972;SDS011;1496;51.404;7.232;2023-04-30T07:32:20;13.33;;;9.47;;
2972;SDS011;1496;51.404;7.232;2023-04-30T07:34:52;12.13;;;8.97;;
2972;SDS011;1496;51.404;7.232;2023-04-30T07:37:19;13.80;;;9.20;;
2972;SDS011;1496;51.404;7.232;2023-04-30T07:39:46;16.23;;;9.07;;
2972;SDS011;1496;51.404;7.232;2023-04-30T07:42:13;14.00;;;9.77;;
2972;SDS011;1496;51.404;7.232;2023-04-30T07:44:40;12.40;;;9.93;;
2972;SDS011;1496;51.404;7.232;2023-04-30T07:47:07;12.83;;;9.23;;
2972;SDS011;1496;51.404;7.232;2023-04-30T07:49:35;13.73;;;9.50;;
2972;SDS011;1496;51.404;7.232;2023-04-30T07:52:02;11.70;;;9.13;;
2972;SDS011;1496;51.404;7.232;2023-04-30T07:54:30;14.70;;;10.53;;
2972;SDS011;1496;51.404;7.232;2023-04-30T07:57:01;13.73;;;9.40;;
2972;SDS011;1496;51.404;7.232;2023-04-30T07:59:29;15.57;;;11.00;;
2972;SDS011;1496;51.404;7.232;2023-04-30T08:01:57;12.53;;;9.53;;
2972;SDS011;1496;51.404;7.232;2023-04-30T08:04:24;13.23;;;9.43;;
2972;SDS011;1496;51.404;7.232;2023-04-30T08:06:52;11.80;;;9.40;;
2972;SDS011;1496;51.404;7.232;2023-04-30T08:09:19;13.53;;;11.03;;
2972;SDS011;1496;51.404;7.232;2023-04-30T08:11:47;12.37;;;9.50;;
2972;SDS011;1496;51.404;7.232;2023-04-30T08:14:15;13.57;;;10.60;;
2972;SDS011;1496;51.404;7.232;2023-04-30T08:16:41;18.00;;;9.90;;
2972;SDS011;1496;51.404;7.232;2023-04-30T08:19:09;16.07;;;9.83;;
2972;SDS011;1496;51.404;7.232;2023-04-30T08:21:37;15.27;;;10.07;;
2972;SDS011;1496;51.404;7.232;2023-04-30T08:24:04;14.07;;;10.40;;
2972;SDS011;1496;51.404;7.232;2023-04-30T08:26:31;13.10;;;9.50;;
2972;SDS011;1496;51.404;7.232;2023-04-30T08:28:57;12.00;;;9.90;;
2972;SDS011;1496;51.404;7.232;2023-04-30T08:31:24;11.50;;;8.63;;
2972;SDS011;1496;51.404;7.232;2023-04-30T08:33:50;15.00;;;8.63;;
2972;SDS011;1496;51.404;7.232;2023-04-30T08:36:17;10.00;;;7.97;;
2972;SDS011;1496;51.404;7.232;2023-04-30T08:38:44;12.67;;;7.60;;
2972;SDS011;1496;51.404;7.232;2023-04-30T08:41:12;15.43;;;8.40;;
2972;SDS011;1496;51.404;7.232;2023-04-30T08:43:40;12.80;;;7.83;;
2972;SDS011;1496;51.404;7.232;2023-04-30T08:46:11;11.50;;;8.43;;
2972;SDS011;1496;51.404;7.232;2023-04-30T08:48:41;14.40;;;8.10;;
2972;SDS011;1496;51.404;7.232;2023-04-30T08:51:08;11.70;;;7.90;;
2972;SDS011;1496;51.404;7.232;2023-04-30T08:53:37;12.17;;;6.97;;
2972;SDS011;1496;51.404;7.232;2023-04-30T08:56:04;13.10;;;8.27;;
2972;SDS011;1496;51.404;7.232;2023-04-30T08:58:33;8.73;;;6.97;;
2972;SDS011;1496;51.404;7.232;2023-04-30T09:01:01;8.70;;;7.03;;
2972;SDS011;1496;51.404;7.232;2023-04-30T09:03:30;7.83;;;6.50;;
2972;SDS011;1496;51.404;7.232;2023-04-30T09:05:57;8.33;;;6.80;;
2972;SDS011;1496;51.404;7.232;2023-04-30T09:08:40;8.60;;;6.00;;
2972;SDS011;1496;51.404;7.232;2023-04-30T09:11:22;7.20;;;6.20;;
2972;SDS011;1496;51.404;7.232;2023-04-30T09:13:58;8.20;;;5.70;;
2972;SDS011;1496;51.404;7.232;2023-04-30T09:16:27;5.80;;;4.60;;
2972;SDS011;1496;51.404;7.232;2023-04-30T09:18:57;6.43;;;5.17;;
2972;SDS011;1496;51.404;7.232;2023-04-30T09:21:32;7.23;;;5.50;;
2972;SDS011;1496;51.404;7.232;2023-04-30T09:24:00;8.83;;;6.23;;
2972;SDS011;1496;51.404;7.232;2023-04-30T09:26:33;6.93;;;5.70;;
2972;SDS011;1496;51.404;7.232;2023-04-30T09:29:02;10.30;;;5.80;;
2972;SDS011;1496;51.404;7.232;2023-04-30T09:31:35;8.07;;;6.10;;
2972;SDS011;1496;51.404;7.232;2023-04-30T09:34:03;10.57;;;6.10;;
2972;SDS011;1496;51.404;7.232;2023-04-30T09:36:31;10.57;;;5.40;;
2972;SDS011;1496;51.404;7.232;2023-04-30T09:39:09;6.37;;;5.20;;
2972;SDS011;1496;51.404;7.232;2023-04-30T09:41:41;9.77;;;5.83;;
2972;SDS011;1496;51.404;7.232;2023-04-30T09:44:08;7.83;;;6.23;;
2972;SDS011;1496;51.404;7.232;2023-04-30T09:46:52;6.20;;;5.20;;
2972;SDS011;1496;51.404;7.232;2023-04-30T09:49:20;7.90;;;4.63;;
2972;SDS011;1496;51.404;7.232;2023-04-30T09:51:53;8.27;;;5.87;;
2972;SDS011;1496;51.404;7.232;2023-04-30T09:54:27;6.87;;;4.60;;
2972;SDS011;1496;51.404;7.232;2023-04-30T09:56:55;7.50;;;4.57;;
2972;SDS011;1496;51.404;7.232;2023-04-30T09:59:30;6.03;;;4.43;;
2972;SDS011;1496;51.404;7.232;2023-04-30T10:02:01;7.40;;;5.93;;
2972;SDS011;1496;51.404;7.232;2023-04-30T10:04:30;9.87;;;6.30;;
2972;SDS011;1496;51.404;7.232;2023-04-30T10:07:08;11.00;;;7.57;;
2972;SDS011;1496;51.404;7.232;2023-04-30T10:09:45;7.37;;;6.50;;
2972;SDS011;1496;51.404;7.232;2023-04-30T10:12:19;8.47;;;6.47;;
2972;SDS011;1496;51.404;7.232;2023-04-30T10:14:53;8.13;;;6.50;;
2972;SDS011;1496;51.404;7.232;2023-04-30T10:17:26;9.10;;;6.70;;
2972;SDS011;1496;51.404;7.232;2023-04-30T10:20:00;6.20;;;5.33;;
2972;SDS011;1496;51.404;7.232;2023-04-30T10:22:31;10.33;;;6.20;;
2972;SDS011;1496;51.404;7.232;2023-04-30T10:24:59;13.30;;;6.03;;
2972;SDS011;1496;51.404;7.232;2023-04-30T10:27:29;6.90;;;5.73;;
2972;SDS011;1496;51.404;7.232;2023-04-30T10:29:55;8.17;;;5.23;;
2972;SDS011;1496;51.404;7.232;2023-04-30T10:32:24;8.63;;;6.00;;
2972;SDS011;1496;51.404;7.232;2023-04-30T10:35:09;8.43;;;5.80;;
2972;SDS011;1496;51.404;7.232;2023-04-30T10:37:49;7.90;;;5.73;;
2972;SDS011;1496;51.404;7.232;2023-04-30T10:40:25;7.60;;;5.50;;
2972;SDS011;1496;51.404;7.232;2023-04-30T10:42:53;5.73;;;4.33;;
2972;SDS011;1496;51.404;7.232;2023-04-30T10:45:35;4.90;;;4.07;;
2972;SDS011;1496;51.404;7.232;2023-04-30T10:48:04;5.47;;;4.60;;
2972;SDS011;1496;51.404;7.232;2023-04-30T10:50:31;5.27;;;4.77;;
2972;SDS011;1496;51.404;7.232;2023-04-30T10:53:05;4.97;;;4.20;;
2972;SDS011;1496;51.404;7.232;2023-04-30T10:55:32;7.87;;;4.80;;
2972;SDS011;1496;51.404;7.232;2023-04-30T10:58:09;6.10;;;5.03;;
2972;SDS011;1496;51.404;7.232;2023-04-30T11:00:53;5.87;;;3.73;;
2972;SDS011;1496;51.404;7.232;2023-04-30T11:03:39;4.93;;;3.60;;
2972;SDS011;1496;51.404;7.232;2023-04-30T11:06:10;4.77;;;3.60;;
2972;SDS011;1496;51.404;7.232;2023-04-30T11:08:38;4.43;;;3.60;;
2972;SDS011;1496;51.404;7.232;2023-04-30T11:11:10;4.60;;;3.60;;
2972;SDS011;1496;51.404;7.232;2023-04-30T11:13:40;3.30;;;2.87;;
2972;SDS011;1496;51.404;7.232;2023-04-30T11:16:12;2.50;;;2.30;;
2972;SDS011;1496;51.404;7.232;2023-04-30T11:18:45;3.33;;;2.33;;
2972;SDS011;1496;51.404;7.232;2023-04-30T11:21:12;3.90;;;2.93;;
2972;SDS011;1496;51.404;7.232;2023-04-30T11:23:39;4.80;;;3.10;;
2972;SDS011;1496;51.404;7.232;2023-04-30T11:26:10;2.63;;;2.20;;
2972;SDS011;1496;51.404;7.232;2023-04-30T11:28:37;4.23;;;2.70;;
2972;SDS011;1496;51.404;7.232;2023-04-30T11:31:04;3.13;;;2.30;;
2972;SDS011;1496;51.404;7.232;2023-04-30T11:33:31;4.40;;;2.70;;
2972;SDS011;1496;51.404;7.232;2023-04-30T11:35:59;3.10;;;2.70;;
2972;SDS011;1496;51.404;7.232;2023-04-30T11:41:02;3.30;;;2.50;;
2972;SDS011;1496;51.404;7.232;2023-04-30T11:43:31;4.67;;;3.00;;
2972;SDS011;1496;51.404;7.232;2023-04-30T11:48:29;3.17;;;2.17;;
2972;SDS011;1496;51.404;7.232;2023-04-30T11:50:57;3.47;;;2.67;;
2972;SDS011;1496;51.404;7.232;2023-04-30T11:53:27;3.73;;;2.60;;
2972;SDS011;1496;51.404;7.232;2023-04-30T11:55:54;4.90;;;3.00;;
2972;SDS011;1496;51.404;7.232;2023-04-30T11:58:31;4.33;;;2.40;;
2972;SDS011;1496;51.404;7.232;2023-04-30T12:01:02;7.23;;;3.30;;
2972;SDS011;1496;51.404;7.232;2023-04-30T12:03:55;3.03;;;2.50;;
2972;SDS011;1496;51.404;7.232;2023-04-30T12:06:22;2.73;;;2.10;;
2972;SDS011;1496;51.404;7.232;2023-04-30T12:08:54;2.30;;;1.93;;
2972;SDS011;1496;51.404;7.232;2023-04-30T12:11:23;2.80;;;1.90;;
2972;SDS011;1496;51.404;7.232;2023-04-30T12:13:53;3.53;;;1.90;;
2972;SDS011;1496;51.404;7.232;2023-04-30T12:16:22;2.80;;;1.93;;
2972;SDS011;1496;51.404;7.232;2023-04-30T12:18:50;4.67;;;2.70;;
2972;SDS011;1496;51.404;7.232;2023-04-30T12:21:17;3.40;;;2.47;;
2972;SDS011;1496;51.404;7.232;2023-04-30T12:23:47;4.63;;;2.80;;
2972;SDS011;1496;51.404;7.232;2023-04-30T12:26:15;3.67;;;2.50;;
2972;SDS011;1496;51.404;7.232;2023-04-30T12:28:42;6.33;;;2.20;;
2972;SDS011;1496;51.404;7.232;2023-04-30T12:31:08;3.00;;;2.20;;
2972;SDS011;1496;51.404;7.232;2023-04-30T12:33:35;2.67;;;1.90;;
2972;SDS011;1496;51.404;7.232;2023-04-30T12:36:03;1.90;;;1.40;;
2972;SDS011;1496;51.404;7.232;2023-04-30T12:38:36;2.73;;;1.40;;
2972;SDS011;1496;51.404;7.232;2023-04-30T12:41:09;3.73;;;1.50;;
2972;SDS011;1496;51.404;7.232;2023-04-30T12:43:43;2.70;;;1.93;;
2972;SDS011;1496;51.404;7.232;2023-04-30T12:46:11;2.27;;;1.90;;
2972;SDS011;1496;51.404;7.232;2023-04-30T12:48:50;4.23;;;1.77;;
2972;SDS011;1496;51.404;7.232;2023-04-30T12:51:19;3.63;;;2.10;;
2972;SDS011;1496;51.404;7.232;2023-04-30T12:53:46;3.00;;;1.93;;
2972;SDS011;1496;51.404;7.232;2023-04-30T12:56:14;3.20;;;1.83;;
2972;SDS011;1496;51.404;7.232;2023-04-30T12:58:42;2.73;;;2.00;;
2972;SDS011;1496;51.404;7.232;2023-04-30T13:01:12;2.77;;;1.53;;
2972;SDS011;1496;51.404;7.232;2023-04-30T13:03:45;2.70;;;1.57;;
2972;SDS011;1496;51.404;7.232;2023-04-30T13:06:13;2.60;;;1.40;;
2972;SDS011;1496;51.404;7.232;2023-04-30T13:08:40;3.37;;;1.60;;
2972;SDS011;1496;51.404;7.232;2023-04-30T13:11:09;1.83;;;1.43;;
2972;SDS011;1496;51.404;7.232;2023-04-30T13:13:37;1.70;;;1.60;;
2972;SDS011;1496;51.404;7.232;2023-04-30T13:16:04;2.27;;;1.60;;
2972;SDS011;1496;51.404;7.232;2023-04-30T13:18:31;2.07;;;1.57;;
2972;SDS011;1496;51.404;7.232;2023-04-30T13:20:58;5.10;;;1.97;;
2972;SDS011;1496;51.404;7.232;2023-04-30T13:23:25;2.13;;;1.30;;
2972;SDS011;1496;51.404;7.232;2023-04-30T13:25:51;3.10;;;1.60;;
2972;SDS011;1496;51.404;7.232;2023-04-30T13:28:18;2.70;;;1.67;;
2972;SDS011;1496;51.404;7.232;2023-04-30T13:30:44;4.20;;;2.10;;
2972;SDS011;1496;51.404;7.232;2023-04-30T13:33:12;2.00;;;1.50;;
2972;SDS011;1496;51.404;7.232;2023-04-30T13:35:40;3.10;;;1.60;;
2972;SDS011;1496;51.404;7.232;2023-04-30T13:38:06;4.40;;;1.80;;
2972;SDS011;1496;51.404;7.232;2023-04-30T13:40:33;2.43;;;1.50;;
2972;SDS011;1496;51.404;7.232;2023-04-30T13:43:00;2.17;;;1.57;;
2972;SDS011;1496;51.404;7.232;2023-04-30T13:45:29;2.53;;;1.43;;
2972;SDS011;1496;51.404;7.232;2023-04-30T13:47:55;2.67;;;2.00;;
2972;SDS011;1496;51.404;7.232;2023-04-30T13:50:22;1.97;;;1.33;;
2972;SDS011;1496;51.404;7.232;2023-04-30T13:52:51;3.50;;;2.67;;
2972;SDS011;1496;51.404;7.232;2023-04-30T13:55:18;2.17;;;1.30;;
2972;SDS011;1496;51.404;7.232;2023-04-30T13:57:45;1.97;;;1.20;;
2972;SDS011;1496;51.404;7.232;2023-04-30T14:00:12;2.50;;;1.80;;
2972;SDS011;1496;51.404;7.232;2023-04-30T14:02:43;3.20;;;1.80;;
2972;SDS011;1496;51.404;7.232;2023-04-30T14:05:09;2.97;;;1.97;;
2972;SDS011;1496;51.404;7.232;2023-04-30T14:07:38;3.63;;;1.67;;
2972;SDS011;1496;51.404;7.232;2023-04-30T14:10:06;3.00;;;1.73;;
2972;SDS011;1496;51.404;7.232;2023-04-30T14:12:33;2.00;;;1.50;;
2972;SDS011;1496;51.404;7.232;2023-04-30T14:15:00;4.30;;;2.00;;
2972;SDS011;1496;51.404;7.232;2023-04-30T14:17:26;6.87;;;2.10;;
2972;SDS011;1496;51.404;7.232;2023-04-30T14:19:56;2.73;;;1.40;;
2972;SDS011;1496;51.404;7.232;2023-04-30T14:22:23;4.10;;;1.43;;
2972;SDS011;1496;51.404;7.232;2023-04-30T14:24:51;3.83;;;1.30;;
2972;SDS011;1496;51.404;7.232;2023-04-30T14:27:17;5.73;;;1.67;;
2972;SDS011;1496;51.404;7.232;2023-04-30T14:29:44;3.73;;;1.43;;
2972;SDS011;1496;51.404;7.232;2023-04-30T14:32:12;3.20;;;1.40;;
2972;SDS011;1496;51.404;7.232;2023-04-30T14:34:39;6.17;;;1.50;;
2972;SDS011;1496;51.404;7.232;2023-04-30T14:37:08;2.27;;;1.23;;
2972;SDS011;1496;51.404;7.232;2023-04-30T14:39:34;2.17;;;1.37;;
2972;SDS011;1496;51.404;7.232;2023-04-30T14:42:02;2.83;;;1.20;;
2972;SDS011;1496;51.404;7.232;2023-04-30T14:44:30;2.57;;;1.20;;
2972;SDS011;1496;51.404;7.232;2023-04-30T14:46:57;2.40;;;1.60;;
2972;SDS011;1496;51.404;7.232;2023-04-30T14:49:24;1.83;;;1.30;;
2972;SDS011;1496;51.404;7.232;2023-04-30T14:51:51;1.83;;;1.37;;
2972;SDS011;1496;51.404;7.232;2023-04-30T14:54:18;2.77;;;1.60;;
2972;SDS011;1496;51.404;7.232;2023-04-30T14:56:46;3.73;;;1.63;;
2972;SDS011;1496;51.404;7.232;2023-04-30T14:59:14;1.40;;;1.23;;
2972;SDS011;1496;51.404;7.232;2023-04-30T15:01:43;5.03;;;1.60;;
2972;SDS011;1496;51.404;7.232;2023-04-30T15:04:10;3.10;;;1.30;;
2972;SDS011;1496;51.404;7.232;2023-04-30T15:06:36;1.60;;;1.20;;
2972;SDS011;1496;51.404;7.232;2023-04-30T15:09:03;2.30;;;1.10;;
2972;SDS011;1496;51.404;7.232;2023-04-30T15:11:33;3.53;;;1.50;;
2972;SDS011;1496;51.404;7.232;2023-04-30T15:14:00;4.80;;;1.47;;
2972;SDS011;1496;51.404;7.232;2023-04-30T15:16:27;1.50;;;1.03;;
2972;SDS011;1496;51.404;7.232;2023-04-30T15:18:55;2.30;;;1.20;;
2972;SDS011;1496;51.404;7.232;2023-04-30T15:21:22;1.93;;;1.60;;
2972;SDS011;1496;51.404;7.232;2023-04-30T15:23:51;2.33;;;1.00;;
2972;SDS011;1496;51.404;7.232;2023-04-30T15:26:18;1.67;;;1.10;;
2972;SDS011;1496;51.404;7.232;2023-04-30T15:28:45;3.13;;;1.07;;
2972;SDS011;1496;51.404;7.232;2023-04-30T15:31:12;1.93;;;1.00;;
2972;SDS011;1496;51.404;7.232;2023-04-30T15:33:38;4.20;;;1.50;;
2972;SDS011;1496;51.404;7.232;2023-04-30T15:36:06;1.90;;;1.07;;